sensor_id;sensor_type;location;lat;lon;timestamp;P1;durP1;ratioP1;P2;durP2;ratioP2
23578;SDS011;11967;50.852;4.400;2024-01-27T00:00:39;27.13;;;5.60;;
23578;SDS011;11967;50.852;4.400;2024-01-27T00:03:05;17.85;;;5.72;;
23578;SDS011;11967;50.852;4.400;2024-01-27T00:05:30;14.43;;;5.68;;
23578;SDS011;11967;50.852;4.400;2024-01-27T00:07:56;15.80;;;5.38;;
23578;SDS011;11967;50.852;4.400;2024-01-27T00:10:22;23.90;;;5.55;;
23578;SDS011;11967;50.852;4.400;2024-01-27T00:12:47;23.13;;;5.75;;
23578;SDS011;11967;50.852;4.400;2024-01-27T00:15:14;20.52;;;5.93;;
23578;SDS011;11967;50.852;4.400;2024-01-27T00:17:40;16.38;;;5.43;;
23578;SDS011;11967;50.852;4.400;2024-01-27T00:20:06;21.63;;;5.53;;
23578;SDS011;11967;50.852;4.400;2024-01-27T00:22:32;18.40;;;6.20;;
23578;SDS011;11967;50.852;4.400;2024-01-27T00:24:57;19.70;;;5.88;;
23578;SDS011;11967;50.852;4.400;2024-01-27T00:27:23;17.90;;;6.20;;
23578;SDS011;11967;50.852;4.400;2024-01-27T00:29:48;20.65;;;6.53;;
23578;SDS011;11967;50.852;4.400;2024-01-27T00:32:14;16.73;;;5.90;;
23578;SDS011;11967;50.852;4.400;2024-01-27T00:34:40;25.95;;;6.32;;
23578;SDS011;11967;50.852;4.400;2024-01-27T00:37:05;23.75;;;5.93;;
23578;SDS011;11967;50.852;4.400;2024-01-27T00:39:31;26.42;;;6.40;;
23578;SDS011;11967;50.852;4.400;2024-01-27T00:41:58;22.92;;;6.25;;
23578;SDS011;11967;50.852;4.400;2024-01-27T00:44:24;24.00;;;6.07;;
23578;SDS011;11967;50.852;4.400;2024-01-27T00:46:50;23.50;;;6.90;;
23578;SDS011;11967;50.852;4.400;2024-01-27T00:49:15;29.05;;;6.28;;
23578;SDS011;11967;50.852;4.400;2024-01-27T00:51:41;19.48;;;6.50;;
23578;SDS011;11967;50.852;4.400;2024-01-27T00:54:07;20.33;;;6.35;;
23578;SDS011;11967;50.852;4.400;2024-01-27T00:56:33;28.08;;;6.57;;
23578;SDS011;11967;50.852;4.400;2024-01-27T00:58:58;23.83;;;6.68;;
23578;SDS011;11967;50.852;4.400;2024-01-27T01:01:24;20.65;;;5.90;;
23578;SDS011;11967;50.852;4.400;2024-01-27T01:03:50;22.20;;;6.30;;
23578;SDS011;11967;50.852;4.400;2024-01-27T01:06:16;19.05;;;6.05;;
23578;SDS011;11967;50.852;4.400;2024-01-27T01:08:41;22.58;;;6.78;;
23578;SDS011;11967;50.852;4.400;2024-01-27T01:11:07;21.42;;;6.68;;
23578;SDS011;11967;50.852;4.400;2024-01-27T01:13:32;25.90;;;7.10;;
23578;SDS011;11967;50.852;4.400;2024-01-27T01:15:58;21.27;;;7.13;;
23578;SDS011;11967;50.852;4.400;2024-01-27T01:18:23;21.98;;;6.28;;
23578;SDS011;11967;50.852;4.400;2024-01-27T01:20:49;19.58;;;6.15;;
23578;SDS011;11967;50.852;4.400;2024-01-27T01:23:16;19.58;;;6.43;;
23578;SDS011;11967;50.852;4.400;2024-01-27T01:25:41;28.98;;;7.88;;
23578;SDS011;11967;50.852;4.400;2024-01-27T01:28:07;28.75;;;6.50;;
23578;SDS011;11967;50.852;4.400;2024-01-27T01:30:33;19.77;;;6.30;;
23578;SDS011;11967;50.852;4.400;2024-01-27T01:32:59;22.45;;;6.82;;
23578;SDS011;11967;50.852;4.400;2024-01-27T01:35:24;20.77;;;6.90;;
23578;SDS011;11967;50.852;4.400;2024-01-27T01:37:50;17.42;;;6.65;;
23578;SDS011;11967;50.852;4.400;2024-01-27T01:40:16;25.80;;;7.45;;
23578;SDS011;11967;50.852;4.400;2024-01-27T01:42:41;23.23;;;6.95;;
23578;SDS011;11967;50.852;4.400;2024-01-27T01:45:08;22.30;;;7.10;;
23578;SDS011;11967;50.852;4.400;2024-01-27T01:47:36;27.13;;;7.43;;
23578;SDS011;11967;50.852;4.400;2024-01-27T01:50:02;20.60;;;6.88;;
23578;SDS011;11967;50.852;4.400;2024-01-27T01:52:29;23.10;;;6.80;;
23578;SDS011;11967;50.852;4.400;2024-01-27T01:54:55;23.35;;;7.20;;
23578;SDS011;11967;50.852;4.400;2024-01-27T01:57:20;16.85;;;6.70;;
23578;SDS011;11967;50.852;4.400;2024-01-27T01:59:46;22.58;;;7.90;;
23578;SDS011;11967;50.852;4.400;2024-01-27T02:02:12;18.92;;;6.95;;
23578;SDS011;11967;50.852;4.400;2024-01-27T02:04:40;18.08;;;6.18;;
23578;SDS011;11967;50.852;4.400;2024-01-27T02:07:10;22.05;;;7.55;;
23578;SDS011;11967;50.852;4.400;2024-01-27T02:09:36;26.08;;;7.82;;
23578;SDS011;11967;50.852;4.400;2024-01-27T02:12:02;18.83;;;6.55;;
23578;SDS011;11967;50.852;4.400;2024-01-27T02:14:28;27.70;;;6.78;;
23578;SDS011;11967;50.852;4.400;2024-01-27T02:16:54;19.90;;;6.63;;
23578;SDS011;11967;50.852;4.400;2024-01-27T02:19:20;21.38;;;6.80;;
23578;SDS011;11967;50.852;4.400;2024-01-27T02:21:45;26.48;;;7.20;;
23578;SDS011;11967;50.852;4.400;2024-01-27T02:24:11;25.90;;;6.70;;
23578;SDS011;11967;50.852;4.400;2024-01-27T02:26:37;31.13;;;8.02;;
23578;SDS011;11967;50.852;4.400;2024-01-27T02:29:02;25.40;;;6.22;;
23578;SDS011;11967;50.852;4.400;2024-01-27T02:31:28;24.10;;;7.30;;
23578;SDS011;11967;50.852;4.400;2024-01-27T02:33:54;22.60;;;7.13;;
23578;SDS011;11967;50.852;4.400;2024-01-27T02:36:20;18.98;;;6.35;;
23578;SDS011;11967;50.852;4.400;2024-01-27T02:38:45;20.48;;;6.40;;
23578;SDS011;11967;50.852;4.400;2024-01-27T02:41:11;19.35;;;6.70;;
23578;SDS011;11967;50.852;4.400;2024-01-27T02:43:37;26.90;;;7.60;;
23578;SDS011;11967;50.852;4.400;2024-01-27T02:46:06;27.50;;;7.35;;
23578;SDS011;11967;50.852;4.400;2024-01-27T02:48:32;20.35;;;6.30;;
23578;SDS011;11967;50.852;4.400;2024-01-27T02:51:01;20.33;;;7.00;;
23578;SDS011;11967;50.852;4.400;2024-01-27T02:53:27;25.40;;;7.35;;
23578;SDS011;11967;50.852;4.400;2024-01-27T02:55:53;24.23;;;6.72;;
23578;SDS011;11967;50.852;4.400;2024-01-27T02:58:18;20.98;;;6.93;;
23578;SDS011;11967;50.852;4.400;2024-01-27T03:00:44;19.42;;;7.22;;
23578;SDS011;11967;50.852;4.400;2024-01-27T03:03:10;23.70;;;6.90;;
23578;SDS011;11967;50.852;4.400;2024-01-27T03:05:36;25.60;;;7.00;;
23578;SDS011;11967;50.852;4.400;2024-01-27T03:08:02;23.30;;;7.00;;
23578;SDS011;11967;50.852;4.400;2024-01-27T03:10:28;29.98;;;6.90;;
23578;SDS011;11967;50.852;4.400;2024-01-27T03:12:54;26.13;;;7.40;;
23578;SDS011;11967;50.852;4.400;2024-01-27T03:15:19;22.30;;;6.75;;
23578;SDS011;11967;50.852;4.400;2024-01-27T03:17:45;21.92;;;6.55;;
23578;SDS011;11967;50.852;4.400;2024-01-27T03:20:10;24.45;;;7.32;;
23578;SDS011;11967;50.852;4.400;2024-01-27T03:22:36;22.45;;;6.57;;
23578;SDS011;11967;50.852;4.400;2024-01-27T03:25:02;20.85;;;6.80;;
23578;SDS011;11967;50.852;4.400;2024-01-27T03:27:27;22.60;;;6.55;;
23578;SDS011;11967;50.852;4.400;2024-01-27T03:29:53;23.38;;;6.50;;
23578;SDS011;11967;50.852;4.400;2024-01-27T03:32:19;28.02;;;6.28;;
23578;SDS011;11967;50.852;4.400;2024-01-27T03:34:44;20.50;;;6.30;;
23578;SDS011;11967;50.852;4.400;2024-01-27T03:37:10;23.75;;;6.90;;
23578;SDS011;11967;50.852;4.400;2024-01-27T03:39:36;20.35;;;6.22;;
23578;SDS011;11967;50.852;4.400;2024-01-27T03:42:02;24.70;;;6.15;;
23578;SDS011;11967;50.852;4.400;2024-01-27T03:44:28;25.75;;;7.22;;
23578;SDS011;11967;50.852;4.400;2024-01-27T03:46:53;21.40;;;6.75;;
23578;SDS011;11967;50.852;4.400;2024-01-27T03:49:20;25.98;;;6.88;;
23578;SDS011;11967;50.852;4.400;2024-01-27T03:51:46;19.02;;;6.82;;
23578;SDS011;11967;50.852;4.400;2024-01-27T03:54:11;22.30;;;6.70;;
23578;SDS011;11967;50.852;4.400;2024-01-27T03:56:37;23.45;;;6.72;;
23578;SDS011;11967;50.852;4.400;2024-01-27T03:59:04;20.15;;;6.32;;
23578;SDS011;11967;50.852;4.400;2024-01-27T04:01:31;23.55;;;6.15;;
23578;SDS011;11967;50.852;4.400;2024-01-27T04:03:57;22.65;;;6.80;;
23578;SDS011;11967;50.852;4.400;2024-01-27T04:06:22;21.48;;;6.35;;
23578;SDS011;11967;50.852;4.400;2024-01-27T04:08:48;21.92;;;6.65;;
23578;SDS011;11967;50.852;4.400;2024-01-27T04:11:20;26.55;;;7.25;;
23578;SDS011;11967;50.852;4.400;2024-01-27T04:13:48;21.73;;;6.93;;
23578;SDS011;11967;50.852;4.400;2024-01-27T04:16:14;26.30;;;6.57;;
23578;SDS011;11967;50.852;4.400;2024-01-27T04:18:39;28.17;;;6.88;;
23578;SDS011;11967;50.852;4.400;2024-01-27T04:21:05;25.98;;;7.07;;
23578;SDS011;11967;50.852;4.400;2024-01-27T04:23:30;27.58;;;6.40;;
23578;SDS011;11967;50.852;4.400;2024-01-27T04:25:58;33.22;;;7.22;;
23578;SDS011;11967;50.852;4.400;2024-01-27T04:28:24;16.50;;;6.10;;
23578;SDS011;11967;50.852;4.400;2024-01-27T04:30:49;31.48;;;7.55;;
23578;SDS011;11967;50.852;4.400;2024-01-27T04:33:15;18.52;;;6.80;;
23578;SDS011;11967;50.852;4.400;2024-01-27T04:35:40;23.58;;;6.93;;
23578;SDS011;11967;50.852;4.400;2024-01-27T04:38:08;22.17;;;6.55;;
23578;SDS011;11967;50.852;4.400;2024-01-27T04:40:34;29.33;;;7.20;;
23578;SDS011;11967;50.852;4.400;2024-01-27T04:43:00;21.00;;;6.60;;
23578;SDS011;11967;50.852;4.400;2024-01-27T04:45:26;23.75;;;6.78;;
23578;SDS011;11967;50.852;4.400;2024-01-27T04:47:52;23.15;;;6.90;;
23578;SDS011;11967;50.852;4.400;2024-01-27T04:50:18;22.55;;;6.18;;
23578;SDS011;11967;50.852;4.400;2024-01-27T04:52:45;23.77;;;6.68;;
23578;SDS011;11967;50.852;4.400;2024-01-27T04:55:11;24.85;;;6.93;;
23578;SDS011;11967;50.852;4.400;2024-01-27T04:57:37;27.65;;;7.05;;
23578;SDS011;11967;50.852;4.400;2024-01-27T05:00:03;20.45;;;7.03;;
23578;SDS011;11967;50.852;4.400;2024-01-27T05:02:32;24.67;;;6.97;;
23578;SDS011;11967;50.852;4.400;2024-01-27T05:04:58;26.05;;;6.95;;
23578;SDS011;11967;50.852;4.400;2024-01-27T05:07:25;22.77;;;7.03;;
23578;SDS011;11967;50.852;4.400;2024-01-27T05:09:51;22.30;;;6.85;;
23578;SDS011;11967;50.852;4.400;2024-01-27T05:12:17;21.40;;;6.35;;
23578;SDS011;11967;50.852;4.400;2024-01-27T05:14:43;24.48;;;6.82;;
23578;SDS011;11967;50.852;4.400;2024-01-27T05:17:10;22.83;;;6.32;;
23578;SDS011;11967;50.852;4.400;2024-01-27T05:19:35;27.92;;;7.05;;
23578;SDS011;11967;50.852;4.400;2024-01-27T05:22:01;27.02;;;7.45;;
23578;SDS011;11967;50.852;4.400;2024-01-27T05:24:26;23.40;;;6.88;;
23578;SDS011;11967;50.852;4.400;2024-01-27T05:26:52;22.77;;;6.75;;
23578;SDS011;11967;50.852;4.400;2024-01-27T05:29:18;21.15;;;6.40;;
23578;SDS011;11967;50.852;4.400;2024-01-27T05:31:43;21.63;;;6.03;;
23578;SDS011;11967;50.852;4.400;2024-01-27T05:34:10;19.08;;;6.70;;
23578;SDS011;11967;50.852;4.400;2024-01-27T05:36:36;23.15;;;6.68;;
23578;SDS011;11967;50.852;4.400;2024-01-27T05:39:01;24.00;;;6.28;;
23578;SDS011;11967;50.852;4.400;2024-01-27T05:41:29;17.67;;;6.25;;
23578;SDS011;11967;50.852;4.400;2024-01-27T05:43:55;27.90;;;6.43;;
23578;SDS011;11967;50.852;4.400;2024-01-27T05:46:24;26.33;;;6.57;;
23578;SDS011;11967;50.852;4.400;2024-01-27T05:48:50;26.35;;;6.68;;
23578;SDS011;11967;50.852;4.400;2024-01-27T05:51:18;27.55;;;6.85;;
23578;SDS011;11967;50.852;4.400;2024-01-27T05:53:48;27.13;;;6.53;;
23578;SDS011;11967;50.852;4.400;2024-01-27T05:56:13;31.38;;;7.10;;
23578;SDS011;11967;50.852;4.400;2024-01-27T05:58:39;23.52;;;6.25;;
23578;SDS011;11967;50.852;4.400;2024-01-27T06:01:05;18.98;;;6.47;;
23578;SDS011;11967;50.852;4.400;2024-01-27T06:03:30;19.95;;;6.80;;
23578;SDS011;11967;50.852;4.400;2024-01-27T06:05:56;25.52;;;6.85;;
23578;SDS011;11967;50.852;4.400;2024-01-27T06:08:22;23.65;;;6.95;;
23578;SDS011;11967;50.852;4.400;2024-01-27T06:10:47;20.73;;;6.07;;
23578;SDS011;11967;50.852;4.400;2024-01-27T06:13:13;23.48;;;6.78;;
23578;SDS011;11967;50.852;4.400;2024-01-27T06:15:39;21.10;;;6.32;;
23578;SDS011;11967;50.852;4.400;2024-01-27T06:18:04;23.65;;;5.78;;
23578;SDS011;11967;50.852;4.400;2024-01-27T06:20:31;20.02;;;6.40;;
23578;SDS011;11967;50.852;4.400;2024-01-27T06:22:56;23.92;;;6.60;;
23578;SDS011;11967;50.852;4.400;2024-01-27T06:25:22;19.88;;;6.07;;
23578;SDS011;11967;50.852;4.400;2024-01-27T06:27:48;21.10;;;6.40;;
23578;SDS011;11967;50.852;4.400;2024-01-27T06:30:14;20.13;;;6.03;;
23578;SDS011;11967;50.852;4.400;2024-01-27T06:32:41;26.15;;;6.70;;
23578;SDS011;11967;50.852;4.400;2024-01-27T06:35:07;20.98;;;6.03;;
23578;SDS011;11967;50.852;4.400;2024-01-27T06:37:33;21.60;;;6.25;;
23578;SDS011;11967;50.852;4.400;2024-01-27T06:39:59;23.65;;;6.68;;
23578;SDS011;11967;50.852;4.400;2024-01-27T06:42:24;22.63;;;6.18;;
23578;SDS011;11967;50.852;4.400;2024-01-27T06:44:50;20.10;;;6.05;;
23578;SDS011;11967;50.852;4.400;2024-01-27T06:47:16;23.38;;;6.13;;
23578;SDS011;11967;50.852;4.400;2024-01-27T06:49:41;21.60;;;6.28;;
23578;SDS011;11967;50.852;4.400;2024-01-27T06:52:07;24.67;;;6.22;;
23578;SDS011;11967;50.852;4.400;2024-01-27T06:54:33;20.77;;;6.35;;
23578;SDS011;11967;50.852;4.400;2024-01-27T06:57:01;22.00;;;6.88;;
23578;SDS011;11967;50.852;4.400;2024-01-27T06:59:27;25.77;;;6.32;;
23578;SDS011;11967;50.852;4.400;2024-01-27T07:01:53;28.08;;;6.45;;
23578;SDS011;11967;50.852;4.400;2024-01-27T07:04:19;25.60;;;6.80;;
23578;SDS011;11967;50.852;4.400;2024-01-27T07:06:45;23.35;;;6.45;;
23578;SDS011;11967;50.852;4.400;2024-01-27T07:09:11;26.20;;;6.75;;
23578;SDS011;11967;50.852;4.400;2024-01-27T07:11:36;24.23;;;5.78;;
23578;SDS011;11967;50.852;4.400;2024-01-27T07:14:03;26.35;;;6.63;;
23578;SDS011;11967;50.852;4.400;2024-01-27T07:16:34;20.88;;;6.32;;
23578;SDS011;11967;50.852;4.400;2024-01-27T07:19:00;26.52;;;6.15;;
23578;SDS011;11967;50.852;4.400;2024-01-27T07:21:25;25.15;;;6.88;;
23578;SDS011;11967;50.852;4.400;2024-01-27T07:23:54;26.80;;;6.25;;
23578;SDS011;11967;50.852;4.400;2024-01-27T07:26:19;24.38;;;6.45;;
23578;SDS011;11967;50.852;4.400;2024-01-27T07:28:45;19.27;;;5.68;;
23578;SDS011;11967;50.852;4.400;2024-01-27T07:31:10;26.50;;;6.47;;
23578;SDS011;11967;50.852;4.400;2024-01-27T07:33:37;26.05;;;6.30;;
23578;SDS011;11967;50.852;4.400;2024-01-27T07:36:03;27.83;;;6.03;;
23578;SDS011;11967;50.852;4.400;2024-01-27T07:38:29;20.83;;;5.30;;
23578;SDS011;11967;50.852;4.400;2024-01-27T07:40:55;27.25;;;5.57;;
23578;SDS011;11967;50.852;4.400;2024-01-27T07:43:20;18.77;;;5.53;;
23578;SDS011;11967;50.852;4.400;2024-01-27T07:45:46;23.95;;;5.57;;
23578;SDS011;11967;50.852;4.400;2024-01-27T07:48:12;20.75;;;5.80;;
23578;SDS011;11967;50.852;4.400;2024-01-27T07:50:37;30.17;;;6.63;;
23578;SDS011;11967;50.852;4.400;2024-01-27T07:53:03;26.42;;;5.88;;
23578;SDS011;11967;50.852;4.400;2024-01-27T07:55:29;23.73;;;6.30;;
23578;SDS011;11967;50.852;4.400;2024-01-27T07:57:54;27.42;;;6.25;;
23578;SDS011;11967;50.852;4.400;2024-01-27T08:00:20;22.10;;;5.90;;
23578;SDS011;11967;50.852;4.400;2024-01-27T08:02:46;28.48;;;6.60;;
23578;SDS011;11967;50.852;4.400;2024-01-27T08:05:12;21.42;;;5.47;;
23578;SDS011;11967;50.852;4.400;2024-01-27T08:07:37;25.10;;;5.72;;
23578;SDS011;11967;50.852;4.400;2024-01-27T08:10:03;25.98;;;5.72;;
23578;SDS011;11967;50.852;4.400;2024-01-27T08:12:29;23.10;;;5.30;;
23578;SDS011;11967;50.852;4.400;2024-01-27T08:14:55;26.70;;;5.75;;
23578;SDS011;11967;50.852;4.400;2024-01-27T08:17:21;24.38;;;5.68;;
23578;SDS011;11967;50.852;4.400;2024-01-27T08:19:46;28.25;;;6.30;;
23578;SDS011;11967;50.852;4.400;2024-01-27T08:22:12;23.35;;;5.35;;
23578;SDS011;11967;50.852;4.400;2024-01-27T08:24:38;22.40;;;5.97;;
23578;SDS011;11967;50.852;4.400;2024-01-27T08:27:04;26.88;;;5.45;;
23578;SDS011;11967;50.852;4.400;2024-01-27T08:29:30;26.98;;;5.63;;
23578;SDS011;11967;50.852;4.400;2024-01-27T08:31:56;34.78;;;6.90;;
23578;SDS011;11967;50.852;4.400;2024-01-27T08:34:21;29.25;;;6.88;;
23578;SDS011;11967;50.852;4.400;2024-01-27T08:36:47;32.88;;;8.70;;
23578;SDS011;11967;50.852;4.400;2024-01-27T08:39:13;37.97;;;10.25;;
23578;SDS011;11967;50.852;4.400;2024-01-27T08:41:38;43.47;;;12.85;;
23578;SDS011;11967;50.852;4.400;2024-01-27T08:44:04;46.95;;;13.60;;
23578;SDS011;11967;50.852;4.400;2024-01-27T08:46:30;40.58;;;12.77;;
23578;SDS011;11967;50.852;4.400;2024-01-27T08:48:55;35.28;;;9.88;;
23578;SDS011;11967;50.852;4.400;2024-01-27T08:51:21;41.60;;;8.70;;
23578;SDS011;11967;50.852;4.400;2024-01-27T08:53:47;28.88;;;7.55;;
23578;SDS011;11967;50.852;4.400;2024-01-27T08:56:15;28.02;;;7.03;;
23578;SDS011;11967;50.852;4.400;2024-01-27T08:58:43;31.52;;;6.60;;
23578;SDS011;11967;50.852;4.400;2024-01-27T09:01:09;29.60;;;6.63;;
23578;SDS011;11967;50.852;4.400;2024-01-27T09:03:38;30.52;;;7.68;;
23578;SDS011;11967;50.852;4.400;2024-01-27T09:06:05;30.15;;;8.23;;
23578;SDS011;11967;50.852;4.400;2024-01-27T09:08:33;31.15;;;8.65;;
23578;SDS011;11967;50.852;4.400;2024-01-27T09:10:59;38.78;;;9.10;;
23578;SDS011;11967;50.852;4.400;2024-01-27T09:13:26;29.88;;;8.73;;
23578;SDS011;11967;50.852;4.400;2024-01-27T09:15:52;32.53;;;8.75;;
23578;SDS011;11967;50.852;4.400;2024-01-27T09:18:17;28.85;;;8.95;;
23578;SDS011;11967;50.852;4.400;2024-01-27T09:20:43;26.17;;;7.97;;
23578;SDS011;11967;50.852;4.400;2024-01-27T09:23:08;31.48;;;8.43;;
23578;SDS011;11967;50.852;4.400;2024-01-27T09:25:34;31.00;;;8.85;;
23578;SDS011;11967;50.852;4.400;2024-01-27T09:28:00;25.00;;;7.75;;
23578;SDS011;11967;50.852;4.400;2024-01-27T09:30:26;27.98;;;7.47;;
23578;SDS011;11967;50.852;4.400;2024-01-27T09:32:52;24.27;;;7.90;;
23578;SDS011;11967;50.852;4.400;2024-01-27T09:35:17;29.08;;;7.40;;
23578;SDS011;11967;50.852;4.400;2024-01-27T09:37:43;30.30;;;7.85;;
23578;SDS011;11967;50.852;4.400;2024-01-27T09:40:11;24.95;;;7.45;;
23578;SDS011;11967;50.852;4.400;2024-01-27T09:42:37;27.95;;;8.57;;
23578;SDS011;11967;50.852;4.400;2024-01-27T09:45:08;28.00;;;8.27;;
23578;SDS011;11967;50.852;4.400;2024-01-27T09:47:35;26.50;;;8.10;;
23578;SDS011;11967;50.852;4.400;2024-01-27T09:50:04;28.70;;;7.30;;
23578;SDS011;11967;50.852;4.400;2024-01-27T09:52:30;27.58;;;7.07;;
23578;SDS011;11967;50.852;4.400;2024-01-27T09:54:56;26.67;;;7.43;;
23578;SDS011;11967;50.852;4.400;2024-01-27T09:57:22;23.13;;;6.88;;
23578;SDS011;11967;50.852;4.400;2024-01-27T09:59:48;23.60;;;6.88;;
23578;SDS011;11967;50.852;4.400;2024-01-27T10:02:16;27.35;;;7.15;;
23578;SDS011;11967;50.852;4.400;2024-01-27T10:04:43;27.88;;;6.13;;
23578;SDS011;11967;50.852;4.400;2024-01-27T10:07:14;27.40;;;6.53;;
23578;SDS011;11967;50.852;4.400;2024-01-27T10:09:39;20.65;;;6.20;;
23578;SDS011;11967;50.852;4.400;2024-01-27T10:12:06;25.58;;;7.57;;
23578;SDS011;11967;50.852;4.400;2024-01-27T10:14:40;25.50;;;7.90;;
23578;SDS011;11967;50.852;4.400;2024-01-27T10:17:13;22.98;;;5.93;;
23578;SDS011;11967;50.852;4.400;2024-01-27T10:20:04;32.10;;;8.35;;
23578;SDS011;11967;50.852;4.400;2024-01-27T10:22:39;28.48;;;10.05;;
23578;SDS011;11967;50.852;4.400;2024-01-27T10:25:06;38.83;;;12.18;;
23578;SDS011;11967;50.852;4.400;2024-01-27T10:27:33;29.52;;;10.82;;
23578;SDS011;11967;50.852;4.400;2024-01-27T10:29:59;26.27;;;8.98;;
23578;SDS011;11967;50.852;4.400;2024-01-27T10:32:25;25.65;;;7.15;;
23578;SDS011;11967;50.852;4.400;2024-01-27T10:35:04;23.77;;;6.55;;
23578;SDS011;11967;50.852;4.400;2024-01-27T10:37:30;16.38;;;5.25;;
23578;SDS011;11967;50.852;4.400;2024-01-27T10:40:00;15.07;;;4.20;;
23578;SDS011;11967;50.852;4.400;2024-01-27T10:42:30;14.10;;;4.05;;
23578;SDS011;11967;50.852;4.400;2024-01-27T10:44:57;19.30;;;4.40;;
23578;SDS011;11967;50.852;4.400;2024-01-27T10:47:27;20.55;;;4.47;;
23578;SDS011;11967;50.852;4.400;2024-01-27T10:49:58;17.70;;;4.05;;
23578;SDS011;11967;50.852;4.400;2024-01-27T10:52:31;16.15;;;4.30;;
23578;SDS011;11967;50.852;4.400;2024-01-27T10:55:01;15.27;;;4.20;;
23578;SDS011;11967;50.852;4.400;2024-01-27T10:57:31;16.92;;;4.35;;
23578;SDS011;11967;50.852;4.400;2024-01-27T10:59:58;16.70;;;4.47;;
23578;SDS011;11967;50.852;4.400;2024-01-27T11:02:25;21.90;;;4.00;;
23578;SDS011;11967;50.852;4.400;2024-01-27T11:04:57;17.25;;;4.25;;
23578;SDS011;11967;50.852;4.400;2024-01-27T11:07:25;14.30;;;3.80;;
23578;SDS011;11967;50.852;4.400;2024-01-27T11:09:52;17.23;;;3.90;;
23578;SDS011;11967;50.852;4.400;2024-01-27T11:12:18;12.40;;;3.30;;
23578;SDS011;11967;50.852;4.400;2024-01-27T11:14:49;14.07;;;4.43;;
23578;SDS011;11967;50.852;4.400;2024-01-27T11:17:16;11.35;;;3.53;;
23578;SDS011;11967;50.852;4.400;2024-01-27T11:19:42;15.10;;;3.78;;
23578;SDS011;11967;50.852;4.400;2024-01-27T11:22:23;13.43;;;3.25;;
23578;SDS011;11967;50.852;4.400;2024-01-27T11:25:08;16.30;;;3.65;;
23578;SDS011;11967;50.852;4.400;2024-01-27T11:27:42;13.98;;;3.47;;
23578;SDS011;11967;50.852;4.400;2024-01-27T11:30:24;17.38;;;3.50;;
23578;SDS011;11967;50.852;4.400;2024-01-27T11:32:50;12.57;;;3.08;;
23578;SDS011;11967;50.852;4.400;2024-01-27T11:35:18;17.65;;;3.00;;
23578;SDS011;11967;50.852;4.400;2024-01-27T11:37:44;13.63;;;3.58;;
23578;SDS011;11967;50.852;4.400;2024-01-27T11:40:10;14.13;;;3.17;;
23578;SDS011;11967;50.852;4.400;2024-01-27T11:42:36;10.88;;;3.47;;
23578;SDS011;11967;50.852;4.400;2024-01-27T11:45:02;16.38;;;3.22;;
23578;SDS011;11967;50.852;4.400;2024-01-27T11:47:29;15.32;;;3.22;;
23578;SDS011;11967;50.852;4.400;2024-01-27T11:49:55;15.20;;;2.97;;
23578;SDS011;11967;50.852;4.400;2024-01-27T11:52:22;15.30;;;3.22;;
23578;SDS011;11967;50.852;4.400;2024-01-27T11:57:21;16.60;;;3.72;;
23578;SDS011;11967;50.852;4.400;2024-01-27T11:59:47;12.68;;;2.75;;
23578;SDS011;11967;50.852;4.400;2024-01-27T12:02:12;10.90;;;3.67;;
23578;SDS011;11967;50.852;4.400;2024-01-27T12:04:38;10.85;;;2.97;;
23578;SDS011;11967;50.852;4.400;2024-01-27T12:07:04;13.63;;;3.65;;
23578;SDS011;11967;50.852;4.400;2024-01-27T12:09:30;14.07;;;3.63;;
23578;SDS011;11967;50.852;4.400;2024-01-27T12:11:56;14.20;;;3.28;;
23578;SDS011;11967;50.852;4.400;2024-01-27T12:14:21;15.77;;;3.53;;
23578;SDS011;11967;50.852;4.400;2024-01-27T12:16:47;12.55;;;3.45;;
23578;SDS011;11967;50.852;4.400;2024-01-27T12:19:13;11.48;;;3.28;;
23578;SDS011;11967;50.852;4.400;2024-01-27T12:21:38;13.45;;;3.30;;
23578;SDS011;11967;50.852;4.400;2024-01-27T12:24:15;11.95;;;2.75;;
23578;SDS011;11967;50.852;4.400;2024-01-27T12:26:43;12.27;;;2.78;;
23578;SDS011;11967;50.852;4.400;2024-01-27T12:29:10;13.10;;;3.00;;
23578;SDS011;11967;50.852;4.400;2024-01-27T12:31:36;15.38;;;3.13;;
23578;SDS011;11967;50.852;4.400;2024-01-27T12:34:02;11.73;;;3.00;;
23578;SDS011;11967;50.852;4.400;2024-01-27T12:36:28;14.23;;;3.60;;
23578;SDS011;11967;50.852;4.400;2024-01-27T12:41:24;10.27;;;2.67;;
23578;SDS011;11967;50.852;4.400;2024-01-27T12:43:51;11.68;;;3.17;;
23578;SDS011;11967;50.852;4.400;2024-01-27T12:46:18;13.57;;;3.53;;
23578;SDS011;11967;50.852;4.400;2024-01-27T12:48:44;9.73;;;2.30;;
23578;SDS011;11967;50.852;4.400;2024-01-27T12:51:10;9.68;;;2.28;;
23578;SDS011;11967;50.852;4.400;2024-01-27T12:53:38;11.32;;;3.17;;
23578;SDS011;11967;50.852;4.400;2024-01-27T12:56:07;9.73;;;2.75;;
23578;SDS011;11967;50.852;4.400;2024-01-27T12:58:33;13.95;;;3.28;;
23578;SDS011;11967;50.852;4.400;2024-01-27T13:01:00;12.02;;;2.50;;
23578;SDS011;11967;50.852;4.400;2024-01-27T13:03:25;13.85;;;3.17;;
23578;SDS011;11967;50.852;4.400;2024-01-27T13:05:51;14.00;;;3.53;;
23578;SDS011;11967;50.852;4.400;2024-01-27T13:08:18;16.65;;;3.50;;
23578;SDS011;11967;50.852;4.400;2024-01-27T13:10:44;8.15;;;2.90;;
23578;SDS011;11967;50.852;4.400;2024-01-27T13:13:10;11.07;;;2.83;;
23578;SDS011;11967;50.852;4.400;2024-01-27T13:15:35;10.57;;;3.05;;
23578;SDS011;11967;50.852;4.400;2024-01-27T13:18:01;15.48;;;3.75;;
23578;SDS011;11967;50.852;4.400;2024-01-27T13:20:27;11.52;;;3.60;;
23578;SDS011;11967;50.852;4.400;2024-01-27T13:22:52;8.07;;;2.60;;
23578;SDS011;11967;50.852;4.400;2024-01-27T13:25:19;12.98;;;3.03;;
23578;SDS011;11967;50.852;4.400;2024-01-27T13:27:45;13.25;;;3.10;;
23578;SDS011;11967;50.852;4.400;2024-01-27T13:30:11;10.52;;;3.25;;
23578;SDS011;11967;50.852;4.400;2024-01-27T13:32:38;14.65;;;3.67;;
23578;SDS011;11967;50.852;4.400;2024-01-27T13:35:04;9.98;;;2.50;;
23578;SDS011;11967;50.852;4.400;2024-01-27T13:37:30;10.77;;;3.03;;
23578;SDS011;11967;50.852;4.400;2024-01-27T13:39:59;11.73;;;3.10;;
23578;SDS011;11967;50.852;4.400;2024-01-27T13:42:25;9.63;;;2.53;;
23578;SDS011;11967;50.852;4.400;2024-01-27T13:44:52;13.65;;;3.50;;
23578;SDS011;11967;50.852;4.400;2024-01-27T13:47:17;10.65;;;2.83;;
23578;SDS011;11967;50.852;4.400;2024-01-27T13:49:43;9.25;;;2.50;;
23578;SDS011;11967;50.852;4.400;2024-01-27T13:52:09;10.57;;;3.00;;
23578;SDS011;11967;50.852;4.400;2024-01-27T13:54:36;8.10;;;2.50;;
23578;SDS011;11967;50.852;4.400;2024-01-27T13:57:02;9.55;;;2.33;;
23578;SDS011;11967;50.852;4.400;2024-01-27T13:59:28;11.68;;;2.63;;
23578;SDS011;11967;50.852;4.400;2024-01-27T14:01:55;8.70;;;2.60;;
23578;SDS011;11967;50.852;4.400;2024-01-27T14:04:22;9.70;;;3.00;;
23578;SDS011;11967;50.852;4.400;2024-01-27T14:06:50;10.55;;;2.83;;
23578;SDS011;11967;50.852;4.400;2024-01-27T14:09:18;10.50;;;3.17;;
23578;SDS011;11967;50.852;4.400;2024-01-27T14:11:44;7.40;;;2.47;;
23578;SDS011;11967;50.852;4.400;2024-01-27T14:14:10;9.07;;;2.75;;
23578;SDS011;11967;50.852;4.400;2024-01-27T14:16:37;12.02;;;2.78;;
23578;SDS011;11967;50.852;4.400;2024-01-27T14:19:03;14.52;;;2.60;;
23578;SDS011;11967;50.852;4.400;2024-01-27T14:21:29;7.45;;;2.22;;
23578;SDS011;11967;50.852;4.400;2024-01-27T14:23:54;10.45;;;2.90;;
23578;SDS011;11967;50.852;4.400;2024-01-27T14:26:26;9.52;;;2.75;;
23578;SDS011;11967;50.852;4.400;2024-01-27T14:28:53;8.73;;;2.45;;
23578;SDS011;11967;50.852;4.400;2024-01-27T14:31:20;8.38;;;2.67;;
23578;SDS011;11967;50.852;4.400;2024-01-27T14:33:47;10.52;;;2.72;;
23578;SDS011;11967;50.852;4.400;2024-01-27T14:36:13;10.05;;;2.58;;